Time;durP1;ratioP1;P1;durP2;ratioP2;P2;SDS_P1;SDS_P2;PMS_P1;PMS_P2;Temp;Humidity;BMP_temperature;BMP_pressure;BME280_temperature;BME280_humidity;BME280_pressure;Samples;Min_cycle;Max_cycle;Signal;HPM_P1;HPM_P2
2022/12/28 00:01:42;;;;;;;;;;;;;;;11.58;100.00;100543.94;7355068;19;19953;-67
2022/12/28 00:04:09;;;;;;;;;;;;;;;11.59;100.00;100528.94;7358240;19;19926;-68
2022/12/28 00:06:35;;;;;;;;;;;;;;;11.60;100.00;100525.34;7352152;19;19930;-67
2022/12/28 00:09:02;;;;;;;;;;;;;;;11.66;100.00;100529.94;7358777;19;19938;-67
2022/12/28 00:11:29;;;;;;;;;;;;;;;11.69;100.00;100536.69;7356294;19;19927;-68
2022/12/28 00:14:00;;;;;;;;;;;;;;;11.73;100.00;100535.41;7359622;19;19946;-67
2022/12/28 00:16:26;;;;;;;;;;;;;;;11.76;100.00;100535.06;7357292;19;19934;-68
2022/12/28 00:18:54;;;;;;;;;;;;;;;11.81;100.00;100520.38;7358612;19;20026;-67
2022/12/28 00:21:21;;;;;;;;;;;;;;;11.83;100.00;100521.06;7355425;19;19915;-67
2022/12/28 00:23:50;;;;;;;;;;;;;;;11.85;100.00;100534.03;7355865;19;19926;-68
2022/12/28 00:26:16;;;;;;;;;;;;;;;11.90;100.00;100518.53;7356924;19;20022;-67
2022/12/28 00:28:43;;;;;;;;;;;;;;;11.93;100.00;100529.59;7356047;19;20810;-67
2022/12/28 00:31:11;;;;;;;;;;;;;;;11.96;100.00;100525.78;7357843;19;19964;-68
2022/12/28 00:33:38;;;;;;;;;;;;;;;11.99;100.00;100536.81;7354633;19;19931;-67
2022/12/28 00:36:05;;;;;;;;;;;;;;;12.04;100.00;100535.50;7354162;19;20733;-67
2022/12/28 00:38:34;;;;;;;;;;;;;;;12.05;100.00;100529.22;7355158;19;20463;-67
2022/12/28 00:41:00;;;;;;;;;;;;;;;12.06;100.00;100518.50;7356683;19;19930;-68
2022/12/28 00:43:27;;;;;;;;;;;;;;;12.06;100.00;100515.88;7355438;19;19918;-67
2022/12/28 00:45:54;;;;;;;;;;;;;;;12.08;100.00;100502.53;7356109;19;19943;-67
2022/12/28 00:48:21;;;;;;;;;;;;;;;12.10;100.00;100514.53;7355491;19;19977;-67
2022/12/28 00:50:48;;;;;;;;;;;;;;;12.13;100.00;100502.81;7353671;19;21217;-67
2022/12/28 00:53:16;;;;;;;;;;;;;;;12.14;100.00;100513.19;7354836;19;19931;-69
2022/12/28 00:55:43;;;;;;;;;;;;;;;12.16;100.00;100521.75;7358010;19;19923;-67
2022/12/28 00:58:10;;;;;;;;;;;;;;;12.18;100.00;100516.31;7353936;19;19923;-67
2022/12/28 01:00:38;;;;;;;;;;;;;;;12.21;100.00;100513.34;7356917;19;19931;-67
2022/12/28 01:03:04;;;;;;;;;;;;;;;12.22;100.00;100523.72;7353628;19;19989;-68
2022/12/28 01:05:31;;;;;;;;;;;;;;;12.25;100.00;100509.34;7352951;19;19930;-68
2022/12/28 01:07:58;;;;;;;;;;;;;;;12.27;100.00;100518.75;7355059;19;20522;-68
2022/12/28 01:10:24;;;;;;;;;;;;;;;12.27;100.00;100510.84;7356249;19;19946;-68
2022/12/28 01:12:52;;;;;;;;;;;;;;;12.30;100.00;100510.50;7356513;19;19930;-67
2022/12/28 01:15:19;;;;;;;;;;;;;;;12.32;100.00;100520.88;7355438;19;19918;-67
2022/12/28 01:17:45;;;;;;;;;;;;;;;12.35;100.00;100510.78;7356835;19;19935;-68
2022/12/28 01:20:12;;;;;;;;;;;;;;;12.35;100.00;100512.59;7353677;19;19922;-67
2022/12/28 01:22:39;;;;;;;;;;;;;;;12.38;100.00;100517.56;7355468;19;19923;-67
2022/12/28 01:25:05;;;;;;;;;;;;;;;12.39;100.00;100506.03;7354669;19;19923;-68
2022/12/28 01:27:32;;;;;;;;;;;;;;;12.39;100.00;100514.72;7356333;19;19997;-66
2022/12/28 01:29:59;;;;;;;;;;;;;;;12.41;100.00;100510.09;7354303;19;19918;-67
2022/12/28 01:32:26;;;;;;;;;;;;;;;12.44;100.00;100514.25;7355408;19;19919;-67
2022/12/28 01:34:52;;;;;;;;;;;;;;;12.45;100.00;100505.31;7353060;19;20977;-67
2022/12/28 01:37:19;;;;;;;;;;;;;;;12.47;100.00;100505.13;7352640;19;19939;-68
2022/12/28 01:39:46;;;;;;;;;;;;;;;12.47;100.00;100499.84;7356263;19;19930;-67
2022/12/28 01:42:17;;;;;;;;;;;;;;;12.46;100.00;100495.56;7356283;19;20270;-67
2022/12/28 01:44:45;;;;;;;;;;;;;;;12.46;100.00;100493.75;7356282;19;19923;-67
2022/12/28 01:47:20;;;;;;;;;;;;;;;12.46;100.00;100485.84;7351774;19;19971;-67
2022/12/28 01:49:54;;;;;;;;;;;;;;;12.45;100.00;100489.47;7354249;19;21546;-68
2022/12/28 01:52:34;;;;;;;;;;;;;;;12.43;100.00;100488.84;7353278;19;19970;-67
2022/12/28 01:55:07;;;;;;;;;;;;;;;12.46;100.00;100492.94;7352716;19;19929;-67
2022/12/28 01:58:00;;;;;;;;;;;;;;;12.47;100.00;100490.13;7353011;19;20624;-67
2022/12/28 02:00:32;;;;;;;;;;;;;;;12.48;100.00;100491.78;7353668;19;19927;-67
2022/12/28 02:03:08;;;;;;;;;;;;;;;12.50;100.00;100497.69;7353612;19;20448;-68
2022/12/28 02:05:40;;;;;;;;;;;;;;;12.49;100.00;100492.59;7352594;19;19930;-68
2022/12/28 02:08:09;;;;;;;;;;;;;;;12.49;100.00;100501.34;7353338;19;19930;-67
2022/12/28 02:10:42;;;;;;;;;;;;;;;12.51;100.00;100487.97;7354667;19;19918;-67
2022/12/28 02:13:13;;;;;;;;;;;;;;;12.54;100.00;100495.53;7353815;19;20536;-68
2022/12/28 02:15:39;;;;;;;;;;;;;;;12.54;100.00;100485.81;7354367;19;19926;-68
2022/12/28 02:18:06;;;;;;;;;;;;;;;12.55;100.00;100490.06;7359413;19;20755;-68
2022/12/28 02:20:43;;;;;;;;;;;;;;;12.57;100.00;100496.00;7360034;19;20235;-68
2022/12/28 02:23:09;;;;;;;;;;;;;;;12.59;100.00;100482.66;7359834;19;19915;-67
2022/12/28 02:25:54;;;;;;;;;;;;;;;12.60;100.00;100484.28;7361021;19;19927;-67
2022/12/28 02:28:24;;;;;;;;;;;;;;;12.64;100.00;100480.31;7360058;19;20731;-66
2022/12/28 02:30:58;;;;;;;;;;;;;;;12.66;100.00;100478.28;7360035;19;19919;-68
2022/12/28 02:33:32;;;;;;;;;;;;;;;12.64;100.00;100473.22;7358942;19;19923;-68
2022/12/28 02:36:02;;;;;;;;;;;;;;;12.63;100.00;100478.66;7358828;19;20518;-68
2022/12/28 02:38:37;;;;;;;;;;;;;;;12.63;100.00;100471.56;7358373;19;19922;-68
2022/12/28 02:41:05;;;;;;;;;;;;;;;12.63;100.00;100474.22;7360494;19;20249;-67
2022/12/28 02:43:32;;;;;;;;;;;;;;;12.64;100.00;100478.50;7360237;19;20031;-67
2022/12/28 02:52:23;;;;;;;;;;;;;;;12.63;100.00;100454.91;7356530;19;19922;-66
2022/12/28 02:58:00;;;;;;;;;;;;;;;12.64;100.00;100467.09;7361412;19;19931;-66
2022/12/28 03:00:37;;;;;;;;;;;;;;;12.64;100.00;100465.28;7358409;19;20019;-67
2022/12/28 03:03:25;;;;;;;;;;;;;;;12.66;100.00;100455.38;7358299;19;19948;-66
2022/12/28 03:09:16;;;;;;;;;;;;;;;12.69;100.00;100457.66;7360496;19;19922;-68
2022/12/28 03:11:45;;;;;;;;;;;;;;;12.69;100.00;100457.66;7357261;19;19935;-67
2022/12/28 03:14:17;;;;;;;;;;;;;;;12.67;100.00;100459.66;7359558;19;20317;-67
2022/12/28 03:33:37;;;;;;;;;;;;;;;12.65;100.00;100439.69;7357190;19;19930;-67
2022/12/28 03:36:16;;;;;;;;;;;;;;;12.65;100.00;100440.53;7354957;19;20591;-67
2022/12/28 03:38:45;;;;;;;;;;;;;;;12.65;100.00;100435.25;7358738;19;20024;-67
2022/12/28 03:41:14;;;;;;;;;;;;;;;12.65;100.00;100435.25;7358066;19;19919;-67
2022/12/28 03:43:45;;;;;;;;;;;;;;;12.67;100.00;100437.72;7356915;19;19955;-67
2022/12/28 03:46:21;;;;;;;;;;;;;;;12.66;100.00;100434.25;7357165;19;19919;-68
2022/12/28 03:48:48;;;;;;;;;;;;;;;12.64;100.00;100428.34;7355693;19;19923;-67
2022/12/28 03:51:22;;;;;;;;;;;;;;;12.65;100.00;100422.03;7354072;19;19923;-67
2022/12/28 03:53:49;;;;;;;;;;;;;;;12.61;100.00;100431.31;7352985;19;19926;-67
2022/12/28 03:56:16;;;;;;;;;;;;;;;12.63;100.00;100426.69;7355443;19;20245;-67
2022/12/28 03:58:43;;;;;;;;;;;;;;;12.63;100.00;100416.13;7355717;19;19923;-65
2022/12/28 04:01:09;;;;;;;;;;;;;;;12.63;100.00;100417.94;7356525;19;19922;-67
2022/12/28 04:03:37;;;;;;;;;;;;;;;12.63;100.00;100408.22;7355221;19;19923;-67
2022/12/28 04:06:04;;;;;;;;;;;;;;;12.63;100.00;100410.03;7356263;19;20571;-67
2022/12/28 04:08:31;;;;;;;;;;;;;;;12.65;100.00;100405.38;7353869;19;20032;-68
2022/12/28 04:10:58;;;;;;;;;;;;;;;12.62;100.00;100397.81;7355793;19;19934;-66
2022/12/28 04:13:28;;;;;;;;;;;;;;;12.61;100.00;100398.81;7357327;19;19923;-66
2022/12/28 04:15:56;;;;;;;;;;;;;;;12.59;100.00;100396.38;7354743;19;20510;-67
2022/12/28 04:18:23;;;;;;;;;;;;;;;12.59;100.00;100395.56;7357099;19;20187;-67
2022/12/28 04:20:50;;;;;;;;;;;;;;;12.56;100.00;100390.59;7354092;19;20005;-66
2022/12/28 04:23:16;;;;;;;;;;;;;;;12.55;100.00;100383.69;7354353;19;19954;-67
2022/12/28 04:25:43;;;;;;;;;;;;;;;12.56;100.00;100391.44;7358392;19;19918;-67
2022/12/28 04:28:10;;;;;;;;;;;;;;;12.62;100.00;100384.63;7352223;19;19935;-67
2022/12/28 04:30:36;;;;;;;;;;;;;;;12.61;100.00;100378.53;7357005;19;20038;-67
2022/12/28 04:33:03;;;;;;;;;;;;;;;12.61;100.00;100380.34;7355970;19;19922;-66
2022/12/28 04:35:30;;;;;;;;;;;;;;;12.60;100.00;100378.69;7355311;19;20365;-67
2022/12/28 04:37:57;;;;;;;;;;;;;;;12.61;100.00;100367.97;7354152;19;19922;-68
2022/12/28 04:40:24;;;;;;;;;;;;;;;12.61;100.00;100375.06;7352304;19;19950;-68
2022/12/28 04:42:51;;;;;;;;;;;;;;;12.59;100.00;100367.34;7355160;19;20176;-67
2022/12/28 04:45:17;;;;;;;;;;;;;;;12.59;100.00;100367.34;7354440;19;20937;-67
2022/12/28 04:47:47;;;;;;;;;;;;;;;12.60;100.00;100366.31;7355531;19;20041;-68
2022/12/28 04:50:14;;;;;;;;;;;;;;;12.58;100.00;100360.41;7354457;19;20741;-67
2022/12/28 04:52:42;;;;;;;;;;;;;;;12.59;100.00;100364.72;7356561;19;19918;-67
2022/12/28 04:55:08;;;;;;;;;;;;;;;12.63;100.00;100357.25;7353858;19;19934;-68
2022/12/28 04:57:55;;;;;;;;;;;;;;;12.62;100.00;100353.78;7358897;19;19919;-68
2022/12/28 05:00:22;;;;;;;;;;;;;;;12.64;100.00;100343.88;7354467;19;19927;-68
2022/12/28 05:02:49;;;;;;;;;;;;;;;12.67;100.00;100338.22;7357369;19;19927;-66
2022/12/28 05:05:16;;;;;;;;;;;;;;;12.66;100.00;100333.13;7350472;19;20918;-66
2022/12/28 05:07:43;;;;;;;;;;;;;;;12.66;100.00;100333.13;7353928;19;19957;-68
2022/12/28 05:10:09;;;;;;;;;;;;;;;12.67;100.00;100327.66;7354739;19;20533;-68
2022/12/28 05:12:36;;;;;;;;;;;;;;;12.69;100.00;100327.50;7354754;19;21963;-68
2022/12/28 05:15:05;;;;;;;;;;;;;;;12.69;100.00;100320.41;7354488;19;19915;-67
2022/12/28 05:17:31;;;;;;;;;;;;;;;12.68;100.00;100321.41;7355676;19;19919;-66
2022/12/28 05:19:58;;;;;;;;;;;;;;;12.68;100.00;100316.13;7355195;19;19934;-67
2022/12/28 05:22:25;;;;;;;;;;;;;;;12.67;100.00;100311.84;7352753;19;19930;-67
2022/12/28 05:24:51;;;;;;;;;;;;;;;12.61;100.00;100311.72;7353048;19;19926;-67
2022/12/28 05:27:18;;;;;;;;;;;;;;;12.64;100.00;100303.47;7351844;19;19922;-67
2022/12/28 05:29:45;;;;;;;;;;;;;;;12.65;100.00;100307.72;7354838;19;20336;-67
2022/12/28 05:32:11;;;;;;;;;;;;;;;12.65;100.00;100305.91;7352433;19;19918;-67
2022/12/28 05:34:39;;;;;;;;;;;;;;;12.64;100.00;100312.19;7355613;19;20026;-67
2022/12/28 05:37:05;;;;;;;;;;;;;;;12.63;100.00;100294.72;7349933;19;20324;-67
2022/12/28 05:39:32;;;;;;;;;;;;;;;12.64;100.00;100301.66;7355942;19;19923;-68
2022/12/28 05:41:59;;;;;;;;;;;;;;;12.64;100.00;100303.47;7352343;19;19930;-67
2022/12/28 05:44:26;;;;;;;;;;;;;;;12.63;100.00;100301.81;7353627;19;19923;-67
2022/12/28 05:46:53;;;;;;;;;;;;;;;12.61;100.00;100299.34;7356018;19;19945;-67
2022/12/28 05:49:20;;;;;;;;;;;;;;;12.61;100.00;100302.00;7355952;19;19931;-67
2022/12/28 05:51:50;;;;;;;;;;;;;;;12.60;100.00;100287.13;7351488;19;19926;-68
2022/12/28 05:54:17;;;;;;;;;;;;;;;12.62;100.00;100290.44;7361475;19;19930;-67
2022/12/28 05:56:44;;;;;;;;;;;;;;;12.64;100.00;100290.25;7359759;19;19926;-67
2022/12/28 05:59:12;;;;;;;;;;;;;;;12.64;100.00;100279.72;7360182;19;19960;-67
2022/12/28 06:01:40;;;;;;;;;;;;;;;12.65;100.00;100271.59;7359158;19;20047;-67
2022/12/28 06:04:10;;;;;;;;;;;;;;;12.67;100.00;100276.69;7359511;19;19923;-67
2022/12/28 06:06:37;;;;;;;;;;;;;;;12.68;100.00;100276.53;7355665;19;20282;-67
2022/12/28 06:09:04;;;;;;;;;;;;;;;12.72;100.00;100266.41;7360187;19;19946;-68
2022/12/28 06:11:31;;;;;;;;;;;;;;;12.74;100.00;100261.78;7360356;19;20390;-67
2022/12/28 06:13:58;;;;;;;;;;;;;;;12.74;100.00;100262.63;7361101;19;20155;-68
2022/12/28 06:16:27;;;;;;;;;;;;;;;12.74;100.00;100265.25;7358913;19;19927;-68
2022/12/28 06:18:54;;;;;;;;;;;;;;;12.78;100.00;100261.25;7359325;19;19934;-68
2022/12/28 06:21:21;;;;;;;;;;;;;;;12.78;100.00;100265.69;7357174;19;20249;-67
2022/12/28 06:23:48;;;;;;;;;;;;;;;12.78;100.00;100260.41;7360210;19;20397;-69
2022/12/28 06:26:16;;;;;;;;;;;;;;;12.79;100.00;100247.03;7360870;19;19927;-68
2022/12/28 06:28:44;;;;;;;;;;;;;;;12.78;100.00;100253.31;7357355;19;19919;-67
2022/12/28 06:31:12;;;;;;;;;;;;;;;12.75;100.00;100237.81;7359849;19;19919;-67
2022/12/28 06:33:39;;;;;;;;;;;;;;;12.75;100.00;100250.22;7358661;19;20408;-69
2022/12/28 06:36:10;;;;;;;;;;;;;;;12.79;100.00;100239.13;7360229;19;19915;-67
2022/12/28 06:38:46;;;;;;;;;;;;;;;12.81;100.00;100236.28;7357970;19;19922;-69
2022/12/28 06:41:13;;;;;;;;;;;;;;;12.80;100.00;100234.63;7358950;19;20298;-68
2022/12/28 06:43:41;;;;;;;;;;;;;;;12.80;100.00;100232.81;7361409;19;19926;-67
2022/12/28 06:46:08;;;;;;;;;;;;;;;12.80;100.00;100224.91;7361269;19;19915;-68
2022/12/28 06:48:35;;;;;;;;;;;;;;;12.80;100.00;100216.16;7355778;19;19915;-67
2022/12/28 06:51:03;;;;;;;;;;;;;;;12.81;100.00;100217.81;7356520;19;20525;-67
2022/12/28 06:53:32;;;;;;;;;;;;;;;12.81;100.00;100221.25;7355042;19;20253;-66
2022/12/28 06:56:01;;;;;;;;;;;;;;;12.80;100.00;100214.34;7358983;19;19947;-67
2022/12/28 06:58:28;;;;;;;;;;;;;;;12.83;100.00;100218.44;7358864;19;19956;-68
2022/12/28 07:00:55;;;;;;;;;;;;;;;12.84;100.00;100218.28;7358662;19;21242;-68
2022/12/28 07:03:23;;;;;;;;;;;;;;;12.85;100.00;100209.34;7353804;19;19929;-70
2022/12/28 07:05:50;;;;;;;;;;;;;;;12.85;100.00;100221.72;7357554;19;20471;-66
2022/12/28 07:08:17;;;;;;;;;;;;;;;12.81;100.00;100207.25;7356580;19;20412;-68
2022/12/28 07:10:44;;;;;;;;;;;;;;;12.82;100.00;100199.16;7360078;19;19918;-67
2022/12/28 07:13:10;;;;;;;;;;;;;;;12.80;100.00;100202.97;7358749;19;19914;-68
2022/12/28 07:15:37;;;;;;;;;;;;;;;12.77;100.00;100195.41;7357223;19;19915;-67
2022/12/28 07:18:04;;;;;;;;;;;;;;;12.76;100.00;100193.78;7358075;19;20032;-67
2022/12/28 07:20:30;;;;;;;;;;;;;;;12.76;100.00;100204.34;7356394;19;19922;-67
2022/12/28 07:23:05;;;;;;;;;;;;;;;12.76;100.00;100194.59;7358002;19;19923;-67
2022/12/28 07:25:32;;;;;;;;;;;;;;;12.74;100.00;100191.34;7356919;19;19922;-67
2022/12/28 07:27:58;;;;;;;;;;;;;;;12.73;100.00;100171.22;7356512;19;21248;-67
2022/12/28 07:30:25;;;;;;;;;;;;;;;12.75;100.00;100178.94;7354975;19;19930;-68
2022/12/28 07:32:52;;;;;;;;;;;;;;;12.74;100.00;100186.06;7356870;19;19923;-67
2022/12/28 07:35:19;;;;;;;;;;;;;;;12.73;100.00;100181.78;7355453;19;20607;-67
2022/12/28 07:37:45;;;;;;;;;;;;;;;12.70;100.00;100166.28;7357387;19;20250;-69
2022/12/28 07:40:12;;;;;;;;;;;;;;;12.70;100.00;100186.56;7356482;19;20753;-67
2022/12/28 07:42:39;;;;;;;;;;;;;;;12.63;100.00;100175.94;7359733;19;19925;-67
2022/12/28 07:45:09;;;;;;;;;;;;;;;12.62;100.00;100176.94;7357487;19;19938;-67
2022/12/28 07:47:36;;;;;;;;;;;;;;;12.57;100.00;100179.31;7355086;19;20010;-67
2022/12/28 07:50:03;;;;;;;;;;;;;;;12.58;100.00;100170.41;7356545;19;19949;-67
2022/12/28 07:52:30;;;;;;;;;;;;;;;12.59;100.00;100171.22;7354964;19;20766;-67
2022/12/28 07:54:57;;;;;;;;;;;;;;;12.55;100.00;100168.09;7358747;19;20318;-68
2022/12/28 07:57:24;;;;;;;;;;;;;;;12.53;100.00;100167.47;7357543;19;21582;-67
2022/12/28 07:59:51;;;;;;;;;;;;;;;12.51;99.70;100174.75;7355898;19;19962;-68
2022/12/28 08:02:17;;;;;;;;;;;;;;;12.44;98.85;100169.38;7359879;19;20532;-68
2022/12/28 08:04:45;;;;;;;;;;;;;;;12.43;98.53;100161.66;7358514;19;19943;-67
2022/12/28 08:07:17;;;;;;;;;;;;;;;12.41;98.86;100164.47;7353646;19;19923;-67
2022/12/28 08:09:44;;;;;;;;;;;;;;;12.37;98.68;100165.84;7355816;19;20616;-67
2022/12/28 08:12:11;;;;;;;;;;;;;;;12.38;99.00;100166.66;7357002;19;20260;-69
2022/12/28 08:14:38;;;;;;;;;;;;;;;12.38;99.31;100153.47;7354070;19;19925;-67
2022/12/28 08:17:04;;;;;;;;;;;;;;;12.37;99.50;100159.75;7355733;19;19923;-67
2022/12/28 08:19:32;;;;;;;;;;;;;;;12.32;99.49;100159.47;7355119;19;20348;-68
2022/12/28 08:21:59;;;;;;;;;;;;;;;12.32;99.84;100149.72;7351932;19;20002;-69
2022/12/28 08:24:26;;;;;;;;;;;;;;;12.34;100.00;100147.72;7356054;19;19919;-68
2022/12/28 08:26:53;;;;;;;;;;;;;;;12.37;100.00;100143.91;7356085;19;20371;-69
2022/12/28 08:29:20;;;;;;;;;;;;;;;12.39;100.00;100144.56;7355121;19;19923;-67
2022/12/28 08:31:48;;;;;;;;;;;;;;;12.36;100.00;100151.00;7353552;19;20275;-67
2022/12/28 08:34:16;;;;;;;;;;;;;;;12.37;100.00;100142.09;7353961;19;19942;-67
2022/12/28 08:36:43;;;;;;;;;;;;;;;12.37;100.00;100144.72;7352949;19;19946;-67
2022/12/28 08:39:10;;;;;;;;;;;;;;;12.38;100.00;100145.56;7355953;19;19925;-68
2022/12/28 08:41:37;;;;;;;;;;;;;;;12.39;100.00;100134.78;7358969;19;19944;-67
2022/12/28 08:47:22;;;;;;;;;;;;;;;12.35;100.00;100124.78;7356086;19;19930;-67
2022/12/28 08:49:49;;;;;;;;;;;;;;;12.35;100.00;100132.72;7355244;19;19918;-67
2022/12/28 08:52:16;;;;;;;;;;;;;;;12.26;100.00;100124.06;7351700;19;19922;-67
2022/12/28 08:54:42;;;;;;;;;;;;;;;12.23;100.00;100116.53;7355872;19;19933;-68
2022/12/28 08:57:09;;;;;;;;;;;;;;;12.24;100.00;100127.91;7355073;19;19923;-68
2022/12/28 08:59:36;;;;;;;;;;;;;;;12.22;100.00;100114.88;7356692;19;19940;-68
2022/12/28 09:02:03;;;;;;;;;;;;;;;12.26;100.00;100113.53;7356559;19;19919;-67
2022/12/28 09:04:30;;;;;;;;;;;;;;;12.29;100.00;100109.72;7356743;19;20836;-67
2022/12/28 09:06:56;;;;;;;;;;;;;;;12.30;100.00;100109.50;7352969;19;19940;-68
2022/12/28 09:09:23;;;;;;;;;;;;;;;12.27;100.00;100101.16;7354341;19;19931;-66
2022/12/28 09:11:50;;;;;;;;;;;;;;;12.26;99.89;100100.34;7355383;19;19927;-67
2022/12/28 09:14:16;;;;;;;;;;;;;;;12.29;99.96;100086.75;7355903;19;19918;-67
2022/12/28 09:16:50;;;;;;;;;;;;;;;12.30;99.72;100085.78;7353813;19;19929;-68
2022/12/28 09:19:17;;;;;;;;;;;;;;;12.32;99.83;100082.97;7356047;19;20203;-67
2022/12/28 09:21:47;;;;;;;;;;;;;;;12.29;99.67;100083.34;7353306;19;19940;-69
2022/12/28 09:24:14;;;;;;;;;;;;;;;12.31;99.65;100068.13;7355005;19;19938;-67
2022/12/28 09:26:41;;;;;;;;;;;;;;;12.28;99.47;100073.78;7353770;19;19960;-67
2022/12/28 09:29:10;;;;;;;;;;;;;;;12.27;99.50;100072.97;7352213;19;19915;-68
2022/12/28 09:31:37;;;;;;;;;;;;;;;12.29;100.00;100067.50;7356340;19;19919;-67
2022/12/28 09:34:04;;;;;;;;;;;;;;;12.27;100.00;100067.69;7353610;19;19982;-68
2022/12/28 09:36:51;;;;;;;;;;;;;;;12.21;99.45;100064.94;7352037;19;20012;-68
2022/12/28 09:39:19;;;;;;;;;;;;;;;12.22;99.72;100059.50;7355620;19;19921;-67
2022/12/28 09:42:01;;;;;;;;;;;;;;;12.26;100.00;100065.22;7353405;19;20359;-69
2022/12/28 09:44:39;;;;;;;;;;;;;;;12.28;100.00;100065.88;7353332;19;19919;-67
2022/12/28 09:47:18;;;;;;;;;;;;;;;12.30;100.00;100064.66;7353906;19;19997;-67
2022/12/28 09:49:44;;;;;;;;;;;;;;;12.32;100.00;100049.50;7355703;19;19919;-67
2022/12/28 09:52:26;;;;;;;;;;;;;;;12.33;100.00;100050.31;7349504;19;20031;-67
2022/12/28 09:54:53;;;;;;;;;;;;;;;12.33;100.00;100052.94;7353253;19;19933;-68
2022/12/28 09:57:21;;;;;;;;;;;;;;;12.32;100.00;100041.56;7353994;19;20065;-69
2022/12/28 09:59:48;;;;;;;;;;;;;;;12.33;100.00;100035.31;7354135;19;19976;-67
2022/12/28 10:02:26;;;;;;;;;;;;;;;12.31;100.00;100045.22;7354454;19;19919;-68
2022/12/28 10:04:53;;;;;;;;;;;;;;;12.31;100.00;100034.66;7353245;19;19922;-68
2022/12/28 10:07:20;;;;;;;;;;;;;;;12.31;100.00;100026.75;7352237;19;19911;-67
2022/12/28 10:09:47;;;;;;;;;;;;;;;12.30;100.00;100017.19;7354425;19;19960;-66
2022/12/28 10:12:16;;;;;;;;;;;;;;;12.32;100.00;100017.00;7352170;19;19961;-67
2022/12/28 10:14:45;;;;;;;;;;;;;;;12.32;100.00;100004.66;7351046;19;19934;-67
2022/12/28 10:17:12;;;;;;;;;;;;;;;12.28;100.00;100011.28;7353589;19;19927;-68
2022/12/28 10:19:39;;;;;;;;;;;;;;;12.26;100.00;100017.75;7353250;19;20787;-67
2022/12/28 10:22:07;;;;;;;;;;;;;;;12.28;100.00;100008.66;7350494;19;20243;-67
2022/12/28 10:24:35;;;;;;;;;;;;;;;12.27;100.00;99993.84;7354298;19;20355;-68
2022/12/28 10:27:04;;;;;;;;;;;;;;;12.21;100.00;99991.09;7353253;19;19915;-68
2022/12/28 10:29:32;;;;;;;;;;;;;;;12.20;100.00;99979.72;7351692;19;19919;-67
2022/12/28 10:32:03;;;;;;;;;;;;;;;12.20;100.00;99987.66;7352814;19;19926;-69
2022/12/28 10:34:31;;;;;;;;;;;;;;;12.22;100.00;99974.28;7352736;19;19931;-68
2022/12/28 10:37:05;;;;;;;;;;;;;;;12.24;100.00;99967.81;7349682;19;19915;-67
2022/12/28 10:39:46;;;;;;;;;;;;;;;12.22;100.00;99963.72;7359542;19;19926;-68
2022/12/28 10:42:19;;;;;;;;;;;;;;;12.21;100.00;99948.91;7359772;19;19915;-67
2022/12/28 10:44:48;;;;;;;;;;;;;;;12.18;100.00;99946.66;7361848;19;19957;-67
2022/12/28 10:47:29;;;;;;;;;;;;;;;12.18;100.00;99938.72;7361024;19;20614;-68
2022/12/28 10:49:56;;;;;;;;;;;;;;;12.14;100.00;99927.72;7358549;19;19922;-67
2022/12/28 10:52:53;;;;;;;;;;;;;;;12.18;100.00;99926.38;7358563;19;20419;-67
2022/12/28 10:55:31;;;;;;;;;;;;;;;12.18;100.00;99923.72;7359153;19;21609;-67
2022/12/28 10:58:18;;;;;;;;;;;;;;;12.21;100.00;99920.72;7359312;19;19915;-67
2022/12/28 11:01:14;;;;;;;;;;;;;;;12.17;100.00;99906.28;7359346;19;21252;-69
2022/12/28 11:03:45;;;;;;;;;;;;;;;12.17;100.00;99895.72;7360314;19;19930;-68
2022/12/28 11:06:16;;;;;;;;;;;;;;;12.19;100.00;99891.06;7359791;19;19922;-68
2022/12/28 11:09:01;;;;;;;;;;;;;;;12.19;100.00;99880.50;7358521;19;19933;-67
2022/12/28 11:11:27;;;;;;;;;;;;;;;12.19;100.00;99879.72;7359769;19;20432;-68
2022/12/28 11:13:57;;;;;;;;;;;;;;;12.18;100.00;99864.91;7360646;19;19933;-68
2022/12/28 11:16:24;;;;;;;;;;;;;;;12.17;100.00;99858.81;7357700;19;19922;-67
2022/12/28 11:18:51;;;;;;;;;;;;;;;12.17;100.00;99850.88;7359653;19;19919;-67
2022/12/28 11:21:19;;;;;;;;;;;;;;;12.16;100.00;99838.69;7356587;19;20747;-68
2022/12/28 11:23:47;;;;;;;;;;;;;;;12.19;100.00;99827.75;7359277;19;19914;-68
2022/12/28 11:26:13;;;;;;;;;;;;;;;12.19;100.00;99827.75;7357909;19;19942;-67
2022/12/28 11:28:41;;;;;;;;;;;;;;;12.20;100.00;99829.41;7358103;19;19927;-66
2022/12/28 11:31:15;;;;;;;;;;;;;;;12.21;100.00;99807.31;7358931;19;19931;-67
2022/12/28 11:33:47;;;;;;;;;;;;;;;12.22;100.00;99798.41;7356212;19;19939;-66
2022/12/28 11:36:16;;;;;;;;;;;;;;;12.18;99.64;99797.16;7355859;19;20707;-67
2022/12/28 11:38:44;;;;;;;;;;;;;;;12.16;99.25;99788.59;7355773;19;19933;-67
2022/12/28 11:41:12;;;;;;;;;;;;;;;12.15;99.69;99775.59;7357959;19;19922;-69
2022/12/28 11:43:46;;;;;;;;;;;;;;;12.18;100.00;99770.78;7356724;19;19918;-67
2022/12/28 11:46:19;;;;;;;;;;;;;;;12.20;99.93;99766.13;7355949;19;19927;-67
2022/12/28 11:49:02;;;;;;;;;;;;;;;12.18;100.00;99749.69;7355716;19;20439;-68
2022/12/28 11:51:33;;;;;;;;;;;;;;;12.21;100.00;99746.66;7356646;19;19918;-68
2022/12/28 11:54:04;;;;;;;;;;;;;;;12.20;99.95;99752.09;7355440;19;19929;-67
2022/12/28 11:56:43;;;;;;;;;;;;;;;12.19;99.85;99734.69;7359752;19;19926;-67
2022/12/28 11:59:19;;;;;;;;;;;;;;;12.18;99.67;99717.22;7359017;19;19927;-64
2022/12/28 12:01:47;;;;;;;;;;;;;;;12.17;99.66;99711.13;7357480;19;19930;-65
2022/12/28 12:04:18;;;;;;;;;;;;;;;12.19;100.00;99710.94;7358262;19;19919;-65
2022/12/28 12:06:46;;;;;;;;;;;;;;;12.20;99.81;99696.72;7353288;19;21835;-64
2022/12/28 12:09:19;;;;;;;;;;;;;;;12.21;100.00;99683.34;7352810;19;19975;-65
2022/12/28 12:11:50;;;;;;;;;;;;;;;12.16;99.20;99682.31;7356466;19;20453;-64
2022/12/28 12:14:20;;;;;;;;;;;;;;;12.16;99.66;99677.03;7357749;19;19927;-67
2022/12/28 12:16:49;;;;;;;;;;;;;;;12.13;99.92;99675.59;7356470;19;19911;-65
2022/12/28 12:19:27;;;;;;;;;;;;;;;12.15;100.00;99649.03;7355714;19;19923;-65
2022/12/28 12:22:14;;;;;;;;;;;;;;;12.15;100.00;99649.84;7353701;19;19915;-64
2022/12/28 12:24:53;;;;;;;;;;;;;;;12.14;100.00;99637.66;7355084;19;19941;-65
2022/12/28 12:27:32;;;;;;;;;;;;;;;12.12;100.00;99634.41;7355862;19;21024;-64
2022/12/28 12:30:01;;;;;;;;;;;;;;;12.14;100.00;99611.28;7355104;19;19922;-66
2022/12/28 12:32:37;;;;;;;;;;;;;;;12.13;99.95;99606.22;7357382;19;19935;-65
2022/12/28 12:35:05;;;;;;;;;;;;;;;12.11;100.00;99589.78;7356283;19;20019;-64
2022/12/28 12:37:53;;;;;;;;;;;;;;;12.14;100.00;99592.03;7355309;19;19923;-65
2022/12/28 12:40:44;;;;;;;;;;;;;;;12.13;100.00;99564.03;7353322;19;19923;-64
2022/12/28 12:43:14;;;;;;;;;;;;;;;12.11;100.00;99553.69;7354049;19;19931;-64
2022/12/28 12:45:46;;;;;;;;;;;;;;;12.13;100.00;99546.41;7355529;19;20555;-64
2022/12/28 12:48:23;;;;;;;;;;;;;;;12.16;100.00;99547.81;7355581;19;19923;-64
2022/12/28 12:50:56;;;;;;;;;;;;;;;12.18;100.00;99540.53;7351842;19;19926;-64
2022/12/28 12:53:42;;;;;;;;;;;;;;;12.17;100.00;99541.53;7352149;19;19955;-65
2022/12/28 12:56:53;;;;;;;;;;;;;;;12.20;100.00;99520.84;7355551;19;19923;-64
2022/12/28 12:59:35;;;;;;;;;;;;;;;12.23;100.00;99514.41;7350545;19;20440;-66
2022/12/28 13:02:13;;;;;;;;;;;;;;;12.24;100.00;99479.91;7350130;19;19922;-64
2022/12/28 13:04:41;;;;;;;;;;;;;;;12.24;100.00;99474.63;7352536;19;19922;-64
2022/12/28 13:07:15;;;;;;;;;;;;;;;12.26;100.00;99455.97;7352275;19;19927;-64
2022/12/28 13:09:42;;;;;;;;;;;;;;;12.27;100.00;99463.69;7352491;19;20262;-65
2022/12/28 13:12:13;;;;;;;;;;;;;;;12.31;100.00;99450.91;7354795;19;19951;-64
2022/12/28 13:14:42;;;;;;;;;;;;;;;12.31;99.42;99427.19;7353900;19;19923;-64
2022/12/28 13:17:15;;;;;;;;;;;;;;;12.34;99.68;99422.31;7355501;19;19926;-65